createdAt,value
2019-05-21T00:01:20.909Z,100561.20
2019-05-21T00:03:51.133Z,100544.09
2019-05-21T00:06:21.288Z,100545.81
2019-05-21T00:08:51.493Z,100537.19
2019-05-21T00:11:21.632Z,100539.89
2019-05-21T00:13:51.798Z,100541.11
2019-05-21T00:16:22.052Z,100539.38
2019-05-21T00:18:52.174Z,100529.37
2019-05-21T00:21:22.301Z,100528.37
2019-05-21T00:23:52.434Z,100534.56
2019-05-21T00:26:23.653Z,100536.02
2019-05-21T00:29:29.789Z,100533.42
2019-05-21T00:32:36.030Z,100529.14
2019-05-21T00:35:48.633Z,100532.61
2019-05-21T00:38:54.709Z,100534.00
2019-05-21T00:42:06.305Z,100528.94
2019-05-21T00:44:40.295Z,100519.89
2019-05-21T00:47:11.962Z,100517.19
2019-05-21T00:49:42.422Z,100520.53
2019-05-21T00:52:12.563Z,100524.09
2019-05-21T00:54:42.682Z,100518.33
2019-05-21T00:57:12.810Z,100515.84
2019-05-21T00:59:42.942Z,100515.36
2019-05-21T01:02:13.144Z,100515.28
2019-05-21T01:04:43.305Z,100515.50
2019-05-21T01:07:13.455Z,100514.23
2019-05-21T01:09:43.586Z,100515.44
2019-05-21T01:12:15.790Z,100503.26
2019-05-21T01:14:45.943Z,100511.67
2019-05-21T01:17:16.114Z,100504.25
2019-05-21T01:19:46.296Z,100499.69
2019-05-21T01:22:16.433Z,100495.56
2019-05-21T01:24:46.609Z,100489.80
2019-05-21T01:27:16.753Z,100489.17
2019-05-21T01:29:46.883Z,100489.17
2019-05-21T01:32:17.016Z,100494.94
2019-05-21T01:34:47.178Z,100491.88
2019-05-21T01:37:17.338Z,100493.22
2019-05-21T01:39:47.492Z,100492.52
2019-05-21T01:42:17.654Z,100495.64
2019-05-21T01:44:47.799Z,100495.86
2019-05-21T01:47:17.927Z,100500.55
2019-05-21T01:49:48.053Z,100496.70
2019-05-21T01:52:18.186Z,100491.37
2019-05-21T01:54:48.342Z,100484.75
2019-05-21T01:57:18.497Z,100482.40
2019-05-21T01:59:48.644Z,100487.09
2019-05-21T02:02:18.774Z,100480.91
2019-05-21T02:04:48.945Z,100479.91
2019-05-21T02:07:19.106Z,100492.30
2019-05-21T02:09:58.263Z,100499.91
2019-05-21T02:12:28.616Z,100500.55
2019-05-21T02:14:58.869Z,100504.81
2019-05-21T02:17:29.034Z,100516.71
2019-05-21T02:19:59.162Z,100513.23
2019-05-21T02:22:29.329Z,100499.63
2019-05-21T02:24:59.445Z,100498.20
2019-05-21T02:27:29.612Z,100502.47
2019-05-21T02:30:00.819Z,100498.54
2019-05-21T02:32:31.043Z,100501.39
2019-05-21T02:35:01.188Z,100509.38
2019-05-21T02:37:31.369Z,100502.59
2019-05-21T02:40:01.522Z,100511.70
2019-05-21T02:42:31.698Z,100515.08
2019-05-21T02:45:01.897Z,100515.58
2019-05-21T02:47:32.055Z,100517.34
2019-05-21T02:50:03.093Z,100513.86
2019-05-21T02:52:33.234Z,100502.55
2019-05-21T02:55:03.365Z,100507.24
2019-05-21T02:57:41.297Z,100507.75
2019-05-21T03:00:40.966Z,100508.67
2019-05-21T03:03:11.991Z,100503.05
2019-05-21T03:05:42.134Z,100505.90
2019-05-21T03:08:12.279Z,100508.89
2019-05-21T03:10:42.416Z,100502.05
2019-05-21T03:13:12.551Z,100495.21
2019-05-21T03:15:42.694Z,100494.71
2019-05-21T03:18:12.915Z,100495.07
2019-05-21T03:20:43.099Z,100332.77
2019-05-21T03:23:13.265Z,100492.33
2019-05-21T03:25:43.406Z,100499.09
2019-05-21T03:28:13.611Z,100494.75
2019-05-21T03:30:43.815Z,100503.58
2019-05-21T03:33:14.032Z,100501.45
2019-05-21T03:35:44.187Z,100507.08
2019-05-21T03:38:14.313Z,100518.11
2019-05-21T03:40:44.452Z,100521.80
2019-05-21T03:43:14.606Z,100528.63
2019-05-21T03:45:45.610Z,100542.75
2019-05-21T03:48:15.744Z,100538.09
2019-05-21T03:50:45.927Z,100544.58
2019-05-21T03:53:16.072Z,100542.78
2019-05-21T03:55:46.398Z,100539.66
2019-05-21T03:58:16.582Z,100549.67
2019-05-21T04:00:46.727Z,100554.33
2019-05-21T04:03:17.094Z,100553.45
2019-05-21T04:05:47.221Z,100549.62
2019-05-21T04:08:17.511Z,100553.45
2019-05-21T04:10:47.651Z,100550.00
2019-05-21T04:13:17.804Z,100550.55
2019-05-21T04:16:03.081Z,100542.36
2019-05-21T04:18:38.368Z,100541.26
2019-05-21T04:21:08.549Z,100542.27
2019-05-21T04:23:39.661Z,100545.63
2019-05-21T04:26:09.824Z,100553.66
2019-05-21T04:28:40.059Z,100558.73
2019-05-21T04:31:10.198Z,100564.41
2019-05-21T04:33:40.366Z,100558.08
2019-05-21T04:36:10.473Z,100561.03
2019-05-21T04:38:40.606Z,100561.89
2019-05-21T04:41:10.795Z,100552.41
2019-05-21T04:43:40.924Z,100543.82
2019-05-21T04:46:11.101Z,100547.69
2019-05-21T04:48:41.219Z,100540.09
2019-05-21T04:51:13.942Z,100539.79
2019-05-21T04:53:44.423Z,100544.87
2019-05-21T04:56:14.611Z,100545.35
2019-05-21T04:58:44.879Z,100544.14
2019-05-21T05:01:15.875Z,100557.75
2019-05-21T05:03:46.176Z,100555.23
2019-05-21T05:06:16.438Z,100553.58
2019-05-21T05:08:46.568Z,100543.62
2019-05-21T05:11:16.772Z,100533.34
2019-05-21T05:13:47.044Z,100521.06
2019-05-21T05:16:17.131Z,100533.28
2019-05-21T05:18:47.285Z,100542.36
2019-05-21T05:21:19.710Z,100546.63
2019-05-21T05:23:49.962Z,100544.98
2019-05-21T05:26:20.927Z,100542.50
2019-05-21T05:28:51.089Z,100552.80
2019-05-21T05:31:21.232Z,100539.56
2019-05-21T05:33:51.532Z,100551.41
2019-05-21T05:36:21.683Z,100550.41
2019-05-21T05:38:51.821Z,100551.35
2019-05-21T05:41:21.959Z,100558.28
2019-05-21T05:43:52.180Z,100565.21
2019-05-21T05:46:22.302Z,100561.36
2019-05-21T05:49:04.021Z,100560.23
2019-05-21T05:51:34.228Z,100576.98
2019-05-21T05:54:07.562Z,100556.06
2019-05-21T05:56:36.208Z,100548.06
2019-05-21T05:59:06.351Z,100561.30
2019-05-21T06:01:36.482Z,100564.30
2019-05-21T06:04:07.325Z,100574.55
2019-05-21T06:06:37.490Z,100566.58
2019-05-21T06:09:07.714Z,100580.80
2019-05-21T06:11:38.000Z,100578.94
2019-05-21T06:14:08.178Z,100578.30
2019-05-21T06:16:38.303Z,100579.09
2019-05-21T06:19:08.439Z,100570.72
2019-05-21T06:21:38.581Z,100570.66
2019-05-21T06:24:08.717Z,100573.78
2019-05-21T06:26:38.862Z,100574.90
2019-05-21T06:29:09.023Z,100572.79
2019-05-21T06:31:39.152Z,100576.57
2019-05-21T06:34:09.286Z,100587.84
2019-05-21T06:36:39.485Z,100585.46
2019-05-21T06:39:09.609Z,100572.31
2019-05-21T06:41:39.749Z,100569.19
2019-05-21T06:44:09.899Z,100580.86
2019-05-21T06:46:40.049Z,100574.36
2019-05-21T06:49:10.175Z,100573.60
2019-05-21T06:51:40.306Z,100568.83
2019-05-21T06:54:11.235Z,100568.11
2019-05-21T06:56:41.370Z,100564.80
2019-05-21T06:59:11.612Z,100568.27
2019-05-21T07:01:41.789Z,100563.66
2019-05-21T07:04:11.944Z,100554.09
2019-05-21T07:06:44.739Z,100555.50
2019-05-21T07:09:13.970Z,100555.27
2019-05-21T07:11:44.145Z,100554.86
2019-05-21T07:14:15.395Z,100550.81
2019-05-21T07:16:45.555Z,100552.83
2019-05-21T07:19:15.734Z,100553.80
2019-05-21T07:21:45.862Z,100553.91
2019-05-21T07:24:16.011Z,100563.19
2019-05-21T07:26:46.182Z,100563.28
2019-05-21T07:29:16.352Z,100560.91
2019-05-21T07:31:46.459Z,100566.06
2019-05-21T07:34:16.614Z,100566.37
2019-05-21T07:36:46.757Z,100568.66
2019-05-21T07:39:16.901Z,100570.59
2019-05-21T07:41:47.044Z,100570.05
2019-05-21T07:44:18.274Z,100567.74
2019-05-21T07:46:48.616Z,100574.45
2019-05-21T07:49:18.756Z,100573.78
2019-05-21T07:51:48.940Z,100567.14
2019-05-21T07:54:19.109Z,100565.86
2019-05-21T07:56:49.267Z,100569.20
2019-05-21T07:59:19.400Z,100571.98
2019-05-21T08:01:49.551Z,100566.22
2019-05-21T08:04:19.688Z,100563.86
2019-05-21T08:06:49.822Z,100568.83
2019-05-21T08:09:19.979Z,100572.17
2019-05-21T08:11:50.310Z,100575.50
2019-05-21T08:14:20.632Z,100572.56
2019-05-21T08:16:50.785Z,100569.92
2019-05-21T08:19:21.885Z,100559.80
2019-05-21T08:21:53.313Z,100554.93
2019-05-21T08:24:23.462Z,100554.93
2019-05-21T08:26:53.624Z,100558.68
2019-05-21T08:29:23.795Z,100550.05
2019-05-21T08:31:53.975Z,100551.26
2019-05-21T08:34:24.098Z,100551.26
2019-05-21T08:36:54.229Z,100550.59
2019-05-21T08:39:28.771Z,100549.23
2019-05-21T08:41:56.229Z,100547.81
2019-05-21T08:44:26.371Z,100549.55
2019-05-21T08:46:56.525Z,100552.80
2019-05-21T08:49:26.703Z,100548.01
2019-05-21T08:51:56.851Z,100540.80
2019-05-21T08:54:44.697Z,100540.66
2019-05-21T08:57:14.834Z,100540.30
2019-05-21T08:59:44.986Z,100538.77
2019-05-21T09:02:15.229Z,100530.64
2019-05-21T09:04:46.801Z,100531.27
2019-05-21T09:07:16.997Z,100535.74
2019-05-21T09:09:50.754Z,100534.27
2019-05-21T09:12:20.037Z,100534.77
2019-05-21T09:14:50.180Z,100527.81
2019-05-21T09:17:20.345Z,100532.91
2019-05-21T09:19:50.458Z,100529.84
2019-05-21T09:22:20.625Z,100536.19
2019-05-21T09:24:50.822Z,100536.19
2019-05-21T09:27:22.093Z,100549.00
2019-05-21T09:29:52.579Z,100548.14
2019-05-21T09:32:22.718Z,100556.78
2019-05-21T09:34:52.898Z,100554.83
2019-05-21T09:37:23.026Z,100550.67
2019-05-21T09:39:53.168Z,100555.04
2019-05-21T09:42:23.307Z,100564.17
2019-05-21T09:44:53.534Z,100568.77
2019-05-21T09:47:23.679Z,100570.36
2019-05-21T09:49:54.401Z,100571.33
2019-05-21T09:52:24.649Z,100577.28
2019-05-21T09:54:54.809Z,100573.09
2019-05-21T09:57:39.563Z,100574.31
2019-05-21T10:00:16.885Z,100578.23
2019-05-21T10:02:47.010Z,100573.31
2019-05-21T10:05:17.312Z,100576.69
2019-05-21T10:07:47.443Z,100574.05
2019-05-21T10:10:17.849Z,100576.34
2019-05-21T10:12:48.007Z,100572.32
2019-05-21T10:15:19.229Z,100569.11
2019-05-21T10:17:50.324Z,100570.21
2019-05-21T10:20:20.661Z,100565.77
2019-05-21T10:22:50.794Z,100564.22
2019-05-21T10:25:21.060Z,100563.92
2019-05-21T10:27:51.270Z,100569.75
2019-05-21T10:30:21.426Z,100566.84
2019-05-21T10:32:51.589Z,100570.06
2019-05-21T10:35:21.965Z,100571.34
2019-05-21T10:37:55.322Z,100573.45
2019-05-21T10:40:24.138Z,100575.80
2019-05-21T10:42:54.236Z,100570.91
2019-05-21T10:45:24.370Z,100571.72
2019-05-21T10:47:54.697Z,100570.17
2019-05-21T10:50:24.989Z,100568.68
2019-05-21T10:52:55.336Z,100568.49
2019-05-21T10:55:25.464Z,100555.99
2019-05-21T10:57:55.591Z,100557.62
2019-05-21T11:00:26.907Z,100564.81
2019-05-21T11:03:05.040Z,100570.14
2019-05-21T11:05:40.344Z,100575.69
2019-05-21T11:08:23.705Z,100580.17
2019-05-21T11:10:43.241Z,100587.70
2019-05-21T11:13:13.464Z,100606.07
2019-05-21T11:15:43.658Z,100603.54
2019-05-21T11:18:13.787Z,100612.05
2019-05-21T11:20:43.933Z,100621.84
2019-05-21T11:23:14.089Z,100623.17
2019-05-21T11:25:44.205Z,100629.20
2019-05-21T11:28:14.331Z,100628.06
2019-05-21T11:30:44.479Z,100629.06
2019-05-21T11:33:14.619Z,100630.12
2019-05-21T11:35:44.765Z,100635.25
2019-05-21T11:38:14.899Z,100635.86
2019-05-21T11:40:50.560Z,100644.41
2019-05-21T11:43:16.935Z,100645.55
2019-05-21T11:45:47.064Z,100641.11
2019-05-21T11:48:17.186Z,100644.55
2019-05-21T11:50:47.350Z,100633.92
2019-05-21T11:53:17.513Z,100629.17
2019-05-21T11:55:47.731Z,100623.14
2019-05-21T11:58:17.852Z,100624.94
2019-05-21T12:00:47.979Z,100625.58
2019-05-21T12:03:18.094Z,100625.70
2019-05-21T12:05:49.085Z,100627.25
2019-05-21T12:08:19.271Z,100624.72
2019-05-21T12:10:49.519Z,100627.81
2019-05-21T12:13:20.921Z,100630.67
2019-05-21T12:15:51.148Z,100629.16
2019-05-21T12:18:21.285Z,100628.15
2019-05-21T12:20:51.466Z,100628.44
2019-05-21T12:23:21.912Z,100631.58
2019-05-21T12:25:52.099Z,100634.73
2019-05-21T12:28:22.310Z,100638.62
2019-05-21T12:30:52.440Z,100645.94
2019-05-21T12:33:22.581Z,100636.28
2019-05-21T12:35:52.711Z,100634.84
2019-05-21T12:38:22.859Z,100629.98
2019-05-21T12:40:52.984Z,100626.19
2019-05-21T12:43:23.118Z,100624.67
2019-05-21T12:45:53.258Z,100625.37
2019-05-21T12:48:23.391Z,100617.07
2019-05-21T12:50:53.544Z,100621.11
2019-05-21T12:53:24.134Z,100618.54
2019-05-21T12:55:54.328Z,100607.56
2019-05-21T12:58:24.479Z,100605.27
2019-05-21T13:00:54.618Z,100614.67
2019-05-21T13:03:24.761Z,100609.89
2019-05-21T13:05:54.886Z,100614.09
2019-05-21T13:08:25.029Z,100611.66
2019-05-21T13:10:55.243Z,100620.39
2019-05-21T13:13:25.369Z,100611.88
2019-05-21T13:15:55.506Z,100616.54
2019-05-21T13:18:25.631Z,100615.98
2019-05-21T13:20:55.761Z,100619.59
2019-05-21T13:23:26.969Z,100612.78
2019-05-21T13:25:57.258Z,100619.47
2019-05-21T13:28:27.383Z,100614.80
2019-05-21T13:30:57.595Z,100623.12
2019-05-21T13:33:27.723Z,100614.09
2019-05-21T13:35:57.963Z,100618.08
2019-05-21T13:38:28.262Z,100617.50
2019-05-21T13:40:58.683Z,100620.87
2019-05-21T13:43:28.830Z,100617.13
2019-05-21T13:45:59.024Z,100622.48
2019-05-21T13:48:29.129Z,100634.84
2019-05-21T13:50:59.272Z,100623.58
2019-05-21T13:53:29.497Z,100629.34
2019-05-21T13:55:59.653Z,100623.36
2019-05-21T13:58:29.795Z,100634.66
2019-05-21T14:01:00.306Z,100621.17
2019-05-21T14:03:30.469Z,100620.53
2019-05-21T14:06:01.920Z,100615.64
2019-05-21T14:08:32.074Z,100613.76
2019-05-21T14:11:03.098Z,100609.36
2019-05-21T14:13:33.292Z,100605.59
2019-05-21T14:16:03.476Z,100610.99
2019-05-21T14:18:33.620Z,100601.58
2019-05-21T14:21:03.777Z,100595.95
2019-05-21T14:23:35.113Z,100594.28
2019-05-21T14:26:05.458Z,100590.64
2019-05-21T14:28:35.650Z,100591.79
2019-05-21T14:31:05.849Z,100594.89
2019-05-21T14:33:36.002Z,100588.81
2019-05-21T14:36:06.212Z,100590.70
2019-05-21T14:38:36.425Z,100566.61
2019-05-21T14:41:06.929Z,100584.50
2019-05-21T14:43:38.201Z,100575.93
2019-05-21T14:46:08.352Z,100573.86
2019-05-21T14:48:38.485Z,100572.74
2019-05-21T14:51:13.142Z,100578.88
2019-05-21T14:53:40.690Z,100580.72
2019-05-21T14:56:10.908Z,100582.39
2019-05-21T14:58:41.060Z,100582.49
2019-05-21T15:01:11.167Z,100574.89
2019-05-21T15:03:41.316Z,100578.26
2019-05-21T15:06:12.284Z,100585.22
2019-05-21T15:08:42.405Z,100591.27
2019-05-21T15:11:12.529Z,100579.29
2019-05-21T15:13:42.687Z,100585.45
2019-05-21T15:16:12.839Z,100586.48
2019-05-21T15:18:43.015Z,100586.32
2019-05-21T15:21:21.514Z,100583.05
2019-05-21T15:23:52.682Z,100585.09
2019-05-21T15:26:23.893Z,100588.85
2019-05-21T15:28:55.109Z,100585.48
2019-05-21T15:31:25.387Z,100588.25
2019-05-21T15:33:55.712Z,100588.63
2019-05-21T15:36:26.063Z,100579.42
2019-05-21T15:38:56.226Z,100580.81
2019-05-21T15:41:26.429Z,100592.60
2019-05-21T15:43:56.573Z,100582.91
2019-05-21T15:46:26.784Z,100585.77
2019-05-21T15:48:56.916Z,100581.67
2019-05-21T15:51:27.046Z,100585.77
2019-05-21T15:53:58.425Z,100586.28
2019-05-21T15:56:28.501Z,100585.95
2019-05-21T15:58:58.633Z,100587.30
2019-05-21T16:01:28.765Z,100576.88
2019-05-21T16:03:58.891Z,100588.12
2019-05-21T16:06:30.592Z,100592.89
2019-05-21T16:09:00.809Z,100591.88
2019-05-21T16:11:31.526Z,100590.20
2019-05-21T16:14:01.713Z,100594.94
2019-05-21T16:16:31.856Z,100586.41
2019-05-21T16:19:02.111Z,100581.64
2019-05-21T16:21:32.212Z,100581.64
2019-05-21T16:24:02.340Z,100584.38
2019-05-21T16:26:32.528Z,100584.71
2019-05-21T16:29:02.665Z,100590.56
2019-05-21T16:31:32.801Z,100590.52
2019-05-21T16:34:02.930Z,100585.31
2019-05-21T16:36:33.177Z,100588.42
2019-05-21T16:39:05.003Z,100588.02
2019-05-21T16:41:44.226Z,100579.82
2019-05-21T16:44:07.035Z,100587.98
2019-05-21T16:46:37.183Z,100583.19
2019-05-21T16:49:07.327Z,100581.64
2019-05-21T16:51:38.535Z,100584.54
2019-05-21T16:54:08.711Z,100583.69
2019-05-21T16:56:38.881Z,100590.80
2019-05-21T16:59:08.953Z,100583.98
2019-05-21T17:01:39.108Z,100586.52
2019-05-21T17:04:09.224Z,100589.23
2019-05-21T17:06:39.409Z,100581.75
2019-05-21T17:09:12.769Z,100582.95
2019-05-21T17:11:42.928Z,100587.77
2019-05-21T17:14:13.093Z,100589.69
2019-05-21T17:16:43.198Z,100587.27
2019-05-21T17:19:13.529Z,100589.44
2019-05-21T17:21:44.750Z,100586.06
2019-05-21T17:24:14.873Z,100586.68
2019-05-21T17:26:45.016Z,100585.00
2019-05-21T17:29:16.200Z,100584.34
2019-05-21T17:31:46.356Z,100581.56
2019-05-21T17:34:16.536Z,100582.47
2019-05-21T17:36:46.880Z,100576.89
2019-05-21T17:39:17.384Z,100586.28
2019-05-21T17:41:47.551Z,100593.00
2019-05-21T17:44:17.673Z,100588.33
2019-05-21T17:46:47.934Z,100588.43
2019-05-21T17:49:19.367Z,100590.08
2019-05-21T17:51:50.469Z,100585.21
2019-05-21T17:54:20.830Z,100588.70
2019-05-21T17:56:50.995Z,100590.22
2019-05-21T17:59:22.455Z,100596.34
2019-05-21T18:01:53.349Z,100588.52
2019-05-21T18:04:23.733Z,100588.86
2019-05-21T18:06:53.951Z,100594.32
2019-05-21T18:09:24.374Z,100590.12
2019-05-21T18:11:54.549Z,100588.48
2019-05-21T18:14:25.586Z,100586.27
2019-05-21T18:16:56.113Z,100582.34
2019-05-21T18:19:26.517Z,100586.68
2019-05-21T18:21:57.095Z,100583.59
2019-05-21T18:24:27.620Z,100577.30
2019-05-21T18:26:57.992Z,100581.84
2019-05-21T18:29:28.117Z,100586.30
2019-05-21T18:31:58.377Z,100585.34
2019-05-21T18:34:28.521Z,100578.16
2019-05-21T18:36:58.731Z,100584.33
2019-05-21T18:39:29.182Z,100590.97
2019-05-21T18:41:59.385Z,100590.46
2019-05-21T18:44:29.522Z,100590.81
2019-05-21T18:46:59.676Z,100591.31
2019-05-21T18:49:29.875Z,100594.03
2019-05-21T18:52:00.219Z,100591.12
2019-05-21T18:54:30.482Z,100598.09
2019-05-21T18:57:00.718Z,100593.63
2019-05-21T18:59:30.992Z,100602.64
2019-05-21T19:02:01.308Z,100606.02
2019-05-21T19:04:31.476Z,100601.59
2019-05-21T19:07:01.912Z,100607.16
2019-05-21T19:09:32.166Z,100606.63
2019-05-21T19:12:02.954Z,100613.08
2019-05-21T19:14:33.568Z,100614.25
2019-05-21T19:17:03.814Z,100616.11
2019-05-21T19:19:33.950Z,100612.70
2019-05-21T19:22:04.288Z,100607.89
2019-05-21T19:24:34.452Z,100612.72
2019-05-21T19:27:04.755Z,100620.45
2019-05-21T19:29:35.009Z,100618.13
2019-05-21T19:32:06.467Z,100625.39
2019-05-21T19:34:36.619Z,100630.20
2019-05-21T19:37:06.849Z,100630.01
2019-05-21T19:39:37.348Z,100636.06
2019-05-21T19:42:07.509Z,100625.81
2019-05-21T19:44:37.656Z,100630.35
2019-05-21T19:47:08.903Z,100632.72
2019-05-21T19:49:39.057Z,100630.97
2019-05-21T19:52:10.777Z,100630.19
2019-05-21T19:54:40.943Z,100631.09
2019-05-21T19:57:11.277Z,100641.51
2019-05-21T19:59:41.557Z,100640.55
2019-05-21T20:02:11.966Z,100640.31
2019-05-21T20:04:42.902Z,100641.47
2019-05-21T20:07:15.212Z,100647.91
2019-05-21T20:09:49.125Z,100639.56
2019-05-21T20:12:19.371Z,100640.86
2019-05-21T20:14:49.674Z,100645.23
2019-05-21T20:17:20.570Z,100647.55
2019-05-21T20:19:52.577Z,100642.56
2019-05-21T20:22:26.239Z,100646.42
2019-05-21T20:24:55.611Z,100647.73
2019-05-21T20:27:26.065Z,100643.72
2019-05-21T20:30:11.540Z,100648.23
2019-05-21T20:32:31.524Z,100646.61
2019-05-21T20:35:01.819Z,100643.23
2019-05-21T20:37:32.153Z,100639.52
2019-05-21T20:40:02.305Z,100640.89
2019-05-21T20:42:32.727Z,100638.27
2019-05-21T20:45:03.041Z,100630.22
2019-05-21T20:47:34.580Z,100636.78
2019-05-21T20:50:05.746Z,100639.28
2019-05-21T20:52:36.416Z,100642.64
2019-05-21T20:55:08.230Z,100647.81
2019-05-21T20:57:38.949Z,100653.87
2019-05-21T21:00:11.009Z,100649.24
2019-05-21T21:02:44.404Z,100651.67
2019-05-21T21:05:15.363Z,100648.68
2019-05-21T21:07:45.827Z,100651.60
2019-05-21T21:10:16.233Z,100646.36
2019-05-21T21:12:46.931Z,100650.63
2019-05-21T21:15:17.274Z,100651.56
2019-05-21T21:17:47.436Z,100649.98
2019-05-21T21:20:17.680Z,100654.47
2019-05-21T21:22:47.829Z,100646.13
2019-05-21T21:25:24.266Z,100652.69
2019-05-21T21:27:55.600Z,100643.09
2019-05-21T21:30:25.916Z,100636.72
2019-05-21T21:32:56.943Z,100635.06
2019-05-21T21:35:27.145Z,100637.91
2019-05-21T21:37:57.874Z,100640.13
2019-05-21T21:40:28.309Z,100640.41
2019-05-21T21:42:58.844Z,100635.27
2019-05-21T21:45:29.055Z,100647.59
2019-05-21T21:47:59.209Z,100641.45
2019-05-21T21:50:29.640Z,100644.58
2019-05-21T21:52:59.775Z,100645.09
2019-05-21T21:55:31.974Z,100640.09
2019-05-21T21:58:02.076Z,100638.53
2019-05-21T22:01:27.959Z,100644.21
2019-05-21T22:04:02.112Z,100643.55
2019-05-21T22:06:35.497Z,100645.94
2019-05-21T22:09:10.146Z,100639.33
2019-05-21T22:11:40.828Z,100637.22
2019-05-21T22:14:10.993Z,100637.98
2019-05-21T22:16:41.245Z,100640.33
2019-05-21T22:19:11.847Z,100642.67
2019-05-21T22:21:43.006Z,100636.81
2019-05-21T22:24:13.667Z,100633.98
2019-05-21T22:26:43.809Z,100634.75
2019-05-21T22:29:13.948Z,100629.39
2019-05-21T22:31:44.665Z,100625.33
2019-05-21T22:34:15.107Z,100628.89
2019-05-21T22:36:45.253Z,100629.03
2019-05-21T22:39:20.122Z,100626.95
2019-05-21T22:41:50.245Z,100628.66
2019-05-21T22:44:21.400Z,100629.43
2019-05-21T22:46:52.441Z,100628.21
2019-05-21T22:49:22.654Z,100631.95
2019-05-21T22:51:54.023Z,100633.06
2019-05-21T22:54:24.265Z,100628.39
2019-05-21T22:56:54.404Z,100625.33
2019-05-21T22:59:24.540Z,100617.03
2019-05-21T23:01:56.702Z,100618.91
2019-05-21T23:04:26.869Z,100613.80
2019-05-21T23:06:58.763Z,100615.02
2019-05-21T23:09:28.902Z,100621.41
2019-05-21T23:11:59.043Z,100611.95
2019-05-21T23:14:29.569Z,100604.84
2019-05-21T23:17:01.758Z,100603.49
2019-05-21T23:19:45.891Z,100601.78
2019-05-21T23:22:18.517Z,100604.22
2019-05-21T23:24:49.801Z,100600.06
2019-05-21T23:27:20.705Z,100603.52
2019-05-21T23:29:51.113Z,100597.40
2019-05-21T23:32:21.621Z,100589.92
2019-05-21T23:34:53.583Z,100588.34
2019-05-21T23:37:25.371Z,100590.80
2019-05-21T23:39:55.620Z,100590.44
2019-05-21T23:42:30.203Z,100590.08
2019-05-21T23:44:58.002Z,100587.38
2019-05-21T23:47:28.137Z,100576.22
2019-05-21T23:49:58.693Z,100571.45
2019-05-21T23:52:29.428Z,100574.64
2019-05-21T23:55:00.168Z,100574.91
2019-05-21T23:57:33.352Z,100570.25
